createdAt,value
2018-10-07T00:00:24.642Z,0
2018-10-07T00:01:34.258Z,0
2018-10-07T00:02:44.099Z,0
2018-10-07T00:03:53.937Z,0
2018-10-07T00:05:03.505Z,0
2018-10-07T00:06:13.621Z,0
2018-10-07T00:07:23.247Z,0
2018-10-07T00:08:32.548Z,0
2018-10-07T00:09:42.385Z,0
2018-10-07T00:10:52.233Z,0
2018-10-07T00:12:02.074Z,0
2018-10-07T00:13:11.961Z,0
2018-10-07T00:14:21.263Z,0
2018-10-07T00:15:30.564Z,0
2018-10-07T00:16:40.419Z,0
2018-10-07T00:17:49.721Z,0
2018-10-07T00:18:59.883Z,0
2018-10-07T00:20:09.728Z,0
2018-10-07T00:21:19.569Z,0
2018-10-07T00:22:29.134Z,0
2018-10-07T00:23:39.243Z,0
2018-10-07T00:24:49.081Z,0
2018-10-07T00:25:59.189Z,0
2018-10-07T00:27:08.224Z,0
2018-10-07T00:28:18.061Z,0
2018-10-07T00:29:28.167Z,0
2018-10-07T00:30:38.014Z,0
2018-10-07T00:31:48.120Z,0
2018-10-07T00:32:57.965Z,0
2018-10-07T00:34:07.537Z,0
2018-10-07T00:35:17.376Z,0
2018-10-07T00:36:27.265Z,0
2018-10-07T00:37:37.375Z,0
2018-10-07T00:38:46.676Z,0
2018-10-07T00:39:56.254Z,0
2018-10-07T00:41:06.369Z,0
2018-10-07T00:42:16.206Z,0
2018-10-07T00:43:26.049Z,0
2018-10-07T00:44:36.157Z,0
2018-10-07T00:45:45.732Z,0
2018-10-07T00:46:55.901Z,0
2018-10-07T00:48:05.746Z,0
2018-10-07T00:49:15.595Z,0
2018-10-07T00:50:25.161Z,0
2018-10-07T00:51:35.278Z,0
2018-10-07T00:52:44.845Z,0
2018-10-07T00:53:54.142Z,0
2018-10-07T00:55:03.438Z,0
2018-10-07T00:56:13.008Z,0
2018-10-07T00:57:23.117Z,0
2018-10-07T00:58:32.968Z,0
2018-10-07T00:59:42.820Z,0
2018-10-07T01:00:52.931Z,0
2018-10-07T01:02:03.066Z,0
2018-10-07T01:03:12.903Z,0
2018-10-07T01:04:22.746Z,0
2018-10-07T01:05:32.856Z,0
2018-10-07T01:06:42.154Z,0
2018-10-07T01:07:51.732Z,0
2018-10-07T01:09:01.301Z,0
2018-10-07T01:10:10.885Z,0
2018-10-07T01:11:20.772Z,0
2018-10-07T01:12:30.877Z,0
2018-10-07T01:13:40.450Z,0
2018-10-07T01:14:50.554Z,0
2018-10-07T01:16:00.662Z,0
2018-10-07T01:17:10.772Z,0
2018-10-07T01:18:20.607Z,0
2018-10-07T01:19:30.451Z,0
2018-10-07T01:20:40.297Z,0
2018-10-07T01:21:50.463Z,0
2018-10-07T01:23:00.300Z,0
2018-10-07T01:24:10.142Z,0
2018-10-07T01:25:19.981Z,0
2018-10-07T01:26:30.119Z,0
2018-10-07T01:27:39.960Z,0
2018-10-07T01:28:49.263Z,0
2018-10-07T01:29:59.376Z,0
2018-10-07T01:31:09.217Z,0
2018-10-07T01:32:18.798Z,0
2018-10-07T01:33:28.639Z,0
2018-10-07T01:34:38.256Z,0
2018-10-07T01:35:48.377Z,0
2018-10-07T01:36:57.685Z,0
2018-10-07T01:38:07.530Z,0
2018-10-07T01:39:17.379Z,0
2018-10-07T01:40:26.728Z,0
2018-10-07T01:41:36.568Z,0
2018-10-07T01:42:45.863Z,0
2018-10-07T01:43:55.969Z,0
2018-10-07T01:45:05.811Z,0
2018-10-07T01:46:15.648Z,0
2018-10-07T01:47:24.946Z,0
2018-10-07T01:48:34.780Z,0
2018-10-07T01:49:44.346Z,0
2018-10-07T01:50:53.371Z,0
2018-10-07T01:52:02.995Z,0
2018-10-07T01:53:13.107Z,0
2018-10-07T01:54:22.949Z,0
2018-10-07T01:55:32.526Z,0
2018-10-07T01:56:42.641Z,0
2018-10-07T01:57:51.993Z,0
2018-10-07T01:59:01.855Z,0
2018-10-07T02:00:11.434Z,0
2018-10-07T02:01:21.005Z,0
2018-10-07T02:02:30.039Z,0
2018-10-07T02:03:39.616Z,0
2018-10-07T02:04:49.455Z,0
2018-10-07T02:05:59.300Z,0
2018-10-07T02:07:08.328Z,0
2018-10-07T02:08:18.175Z,0
2018-10-07T02:09:28.290Z,0
2018-10-07T02:10:38.397Z,0
2018-10-07T02:11:47.969Z,0
2018-10-07T02:12:57.274Z,0
2018-10-07T02:14:07.416Z,0
2018-10-07T02:15:17.532Z,0
2018-10-07T02:16:27.099Z,0
2018-10-07T02:17:37.204Z,0
2018-10-07T02:18:47.312Z,0
2018-10-07T02:19:57.159Z,0
2018-10-07T02:21:06.729Z,0
2018-10-07T02:22:16.294Z,0
2018-10-07T02:23:26.128Z,0
2018-10-07T02:24:35.965Z,0
2018-10-07T02:25:45.541Z,0
2018-10-07T02:26:55.159Z,0
2018-10-07T02:28:04.995Z,0
2018-10-07T02:29:14.296Z,0
2018-10-07T02:30:24.414Z,0
2018-10-07T02:31:34.267Z,0
2018-10-07T02:32:44.434Z,0
2018-10-07T02:33:54.273Z,0
2018-10-07T02:35:04.123Z,0
2018-10-07T02:36:13.972Z,0
2018-10-07T02:37:23.544Z,0
2018-10-07T02:38:33.385Z,0
2018-10-07T02:39:43.223Z,0
2018-10-07T02:40:52.518Z,0
2018-10-07T02:42:01.814Z,0
2018-10-07T02:43:11.389Z,0
2018-10-07T02:44:21.553Z,0
2018-10-07T02:45:31.671Z,0
2018-10-07T02:46:41.300Z,0
2018-10-07T02:47:51.137Z,0
2018-10-07T02:49:00.709Z,0
2018-10-07T02:50:10.544Z,0
2018-10-07T02:51:20.653Z,0
2018-10-07T02:52:30.217Z,0
2018-10-07T02:53:40.060Z,0
2018-10-07T02:54:49.957Z,0
2018-10-07T02:55:59.802Z,0
2018-10-07T02:57:09.655Z,0
2018-10-07T02:58:19.772Z,0
2018-10-07T02:59:29.614Z,0
2018-10-07T03:00:39.186Z,0
2018-10-07T03:01:49.077Z,0
2018-10-07T03:02:58.656Z,0
2018-10-07T03:04:08.499Z,0
2018-10-07T03:05:18.344Z,0
2018-10-07T03:06:27.923Z,0
2018-10-07T03:07:37.764Z,0
2018-10-07T03:08:47.620Z,0
2018-10-07T03:09:56.918Z,0
2018-10-07T03:11:06.755Z,0
2018-10-07T03:12:16.329Z,0
2018-10-07T03:13:25.951Z,0
2018-10-07T03:14:35.793Z,0
2018-10-07T03:15:45.640Z,0
2018-10-07T03:16:55.476Z,0
2018-10-07T03:18:05.333Z,0
2018-10-07T03:19:14.637Z,0
2018-10-07T03:20:24.227Z,0
2018-10-07T03:21:33.802Z,0
2018-10-07T03:22:43.923Z,0
2018-10-07T03:23:53.502Z,0
2018-10-07T03:25:03.608Z,0
2018-10-07T03:26:13.719Z,0
2018-10-07T03:27:23.823Z,0
2018-10-07T03:28:33.934Z,0
2018-10-07T03:29:44.222Z,0
2018-10-07T03:30:54.088Z,0
2018-10-07T03:32:03.982Z,0
2018-10-07T03:33:14.100Z,0
2018-10-07T03:34:23.404Z,0
2018-10-07T03:35:32.972Z,0
2018-10-07T03:36:42.591Z,0
2018-10-07T03:37:52.699Z,0
2018-10-07T03:39:02.815Z,0
2018-10-07T03:40:12.924Z,0
2018-10-07T03:41:22.490Z,0
2018-10-07T03:42:32.607Z,0
2018-10-07T03:43:41.900Z,0
2018-10-07T03:44:51.738Z,0
2018-10-07T03:46:01.839Z,0
2018-10-07T03:47:11.405Z,0
2018-10-07T03:48:21.291Z,0
2018-10-07T03:49:30.862Z,0
2018-10-07T03:50:40.159Z,0
2018-10-07T03:51:49.784Z,0
2018-10-07T03:52:59.350Z,0
2018-10-07T03:54:09.468Z,0
2018-10-07T03:55:19.574Z,0
2018-10-07T03:56:29.411Z,0
2018-10-07T03:57:38.724Z,0
2018-10-07T03:58:48.017Z,0
2018-10-07T03:59:58.132Z,0
2018-10-07T04:01:08.245Z,0
2018-10-07T04:02:17.814Z,0
2018-10-07T04:03:27.117Z,0
2018-10-07T04:04:36.953Z,0
2018-10-07T04:05:46.254Z,0
2018-10-07T04:06:55.288Z,0
2018-10-07T04:08:04.586Z,0
2018-10-07T04:09:14.421Z,0
2018-10-07T04:10:24.538Z,0
2018-10-07T04:11:34.381Z,0
2018-10-07T04:12:43.957Z,0
2018-10-07T04:13:53.803Z,0
2018-10-07T04:15:03.644Z,0
2018-10-07T04:16:13.477Z,0
2018-10-07T04:17:23.044Z,0
2018-10-07T04:18:33.164Z,0
2018-10-07T04:19:42.459Z,0
2018-10-07T04:20:52.312Z,0
2018-10-07T04:22:02.437Z,0
2018-10-07T04:23:12.261Z,0
2018-10-07T04:24:21.830Z,0
2018-10-07T04:25:31.406Z,0
2018-10-07T04:26:40.974Z,0
2018-10-07T04:27:50.823Z,0
2018-10-07T04:29:00.664Z,0
2018-10-07T04:30:10.781Z,0
2018-10-07T04:31:20.346Z,0
2018-10-07T04:32:30.182Z,0
2018-10-07T04:33:39.485Z,0
2018-10-07T04:34:49.052Z,0
2018-10-07T04:35:58.619Z,0
2018-10-07T04:37:08.461Z,0
2018-10-07T04:38:18.563Z,0
2018-10-07T04:39:28.425Z,0
2018-10-07T04:40:38.540Z,0
2018-10-07T04:41:48.658Z,0
2018-10-07T04:42:58.225Z,0
2018-10-07T04:44:08.351Z,0
2018-10-07T04:45:17.657Z,0
2018-10-07T04:46:28.189Z,0
2018-10-07T04:47:38.274Z,0
2018-10-07T04:48:47.840Z,0
2018-10-07T04:49:57.950Z,0
2018-10-07T04:51:07.797Z,0
2018-10-07T04:52:17.637Z,0
2018-10-07T04:53:27.211Z,0
2018-10-07T04:54:37.059Z,0
2018-10-07T04:55:46.894Z,0
2018-10-07T04:56:56.465Z,0
2018-10-07T04:58:06.578Z,0
2018-10-07T04:59:16.833Z,0
2018-10-07T05:00:27.088Z,0
2018-10-07T05:01:37.219Z,0
2018-10-07T05:02:47.054Z,0
2018-10-07T05:03:56.914Z,0
2018-10-07T05:05:06.755Z,0
2018-10-07T05:06:16.592Z,0
2018-10-07T05:07:26.167Z,4
2018-10-07T05:08:35.469Z,4
2018-10-07T05:09:45.308Z,0
2018-10-07T05:10:55.416Z,4
2018-10-07T05:12:05.578Z,8
2018-10-07T05:13:15.134Z,4
2018-10-07T05:14:24.976Z,8
2018-10-07T05:15:34.816Z,8
2018-10-07T05:16:44.114Z,12
2018-10-07T05:17:53.952Z,16
2018-10-07T05:19:03.518Z,16
2018-10-07T05:20:13.090Z,20
2018-10-07T05:21:22.931Z,24
2018-10-07T05:22:32.766Z,28
2018-10-07T05:23:42.602Z,36
2018-10-07T05:24:52.725Z,44
2018-10-07T05:26:02.031Z,48
2018-10-07T05:27:11.896Z,60
2018-10-07T05:28:21.736Z,72
2018-10-07T05:29:31.567Z,80
2018-10-07T05:30:41.676Z,96
2018-10-07T05:31:51.788Z,108
2018-10-07T05:33:01.670Z,120
2018-10-07T05:34:11.582Z,136
2018-10-07T05:35:21.423Z,156
2018-10-07T05:36:31.275Z,176
2018-10-07T05:37:41.390Z,200
2018-10-07T05:38:51.490Z,220
2018-10-07T05:40:01.352Z,252
2018-10-07T05:41:10.918Z,280
2018-10-07T05:42:21.036Z,304
2018-10-07T05:43:31.148Z,332
2018-10-07T05:44:40.675Z,360
2018-10-07T05:45:50.619Z,392
2018-10-07T05:47:00.728Z,420
2018-10-07T05:48:10.836Z,448
2018-10-07T05:49:20.684Z,476
2018-10-07T05:50:30.791Z,508
2018-10-07T05:51:40.361Z,532
2018-10-07T05:52:49.924Z,564
2018-10-07T05:54:00.043Z,596
2018-10-07T05:55:09.610Z,632
2018-10-07T05:56:19.448Z,664
2018-10-07T05:57:29.561Z,700
2018-10-07T05:58:39.697Z,728
2018-10-07T05:59:49.541Z,764
2018-10-07T06:00:58.842Z,792
2018-10-07T06:02:09.232Z,828
2018-10-07T06:03:19.509Z,860
2018-10-07T06:04:29.642Z,896
2018-10-07T06:05:39.482Z,924
2018-10-07T06:06:49.598Z,960
2018-10-07T06:07:59.710Z,992
2018-10-07T06:09:09.342Z,1020
2018-10-07T06:10:18.908Z,1048
2018-10-07T06:11:29.025Z,1072
2018-10-07T06:12:38.592Z,1096
2018-10-07T06:13:48.155Z,1120
2018-10-07T06:14:58.789Z,1144
2018-10-07T06:16:08.721Z,1168
2018-10-07T06:17:18.580Z,1188
2018-10-07T06:18:27.877Z,1212
2018-10-07T06:19:37.459Z,1236
2018-10-07T06:20:47.028Z,1256
2018-10-07T06:21:56.593Z,1276
2018-10-07T06:23:05.891Z,1296
2018-10-07T06:24:15.724Z,1316
2018-10-07T06:25:25.019Z,1332
2018-10-07T06:26:35.144Z,1352
2018-10-07T06:27:45.257Z,1368
2018-10-07T06:28:55.368Z,1388
2018-10-07T06:30:04.893Z,1404
2018-10-07T06:31:14.527Z,1424
2018-10-07T06:32:24.650Z,1440
2018-10-07T06:33:33.957Z,1452
2018-10-07T06:34:43.524Z,1472
2018-10-07T06:35:53.634Z,1484
2018-10-07T06:37:03.202Z,1500
2018-10-07T06:38:13.053Z,1512
2018-10-07T06:39:23.164Z,1528
2018-10-07T06:40:33.015Z,1536
2018-10-07T06:41:42.852Z,1556
2018-10-07T06:42:52.153Z,1568
2018-10-07T06:44:02.041Z,1576
2018-10-07T06:45:11.643Z,1588
2018-10-07T06:46:21.783Z,1604
2018-10-07T06:47:31.361Z,1616
2018-10-07T06:48:41.470Z,1628
2018-10-07T06:49:51.035Z,1636
2018-10-07T06:51:00.597Z,1652
2018-10-07T06:52:09.906Z,1660
2018-10-07T06:53:19.748Z,1676
2018-10-07T06:54:29.592Z,1680
2018-10-07T06:55:39.697Z,1692
2018-10-07T06:56:49.535Z,1704
2018-10-07T06:57:59.385Z,1716
2018-10-07T06:59:08.417Z,1724
2018-10-07T07:00:17.986Z,1732
2018-10-07T07:01:27.568Z,1740
2018-10-07T07:02:37.411Z,1748
2018-10-07T07:03:47.253Z,1756
2018-10-07T07:04:57.364Z,1768
2018-10-07T07:06:06.666Z,1776
2018-10-07T07:07:16.830Z,1788
2018-10-07T07:08:26.665Z,1792
2018-10-07T07:09:35.966Z,1804
2018-10-07T07:10:45.536Z,1816
2018-10-07T07:11:55.664Z,1816
2018-10-07T07:13:05.902Z,1824
2018-10-07T07:14:16.197Z,1832
2018-10-07T07:15:26.309Z,1840
2018-10-07T07:16:36.417Z,1848
2018-10-07T07:17:45.990Z,1852
2018-10-07T07:18:55.561Z,1860
2018-10-07T07:20:06.043Z,1864
2018-10-07T07:21:16.227Z,1872
2018-10-07T07:22:25.526Z,1880
2018-10-07T07:23:35.361Z,1884
2018-10-07T07:24:44.983Z,1892
2018-10-07T07:25:54.816Z,1896
2018-10-07T07:27:04.656Z,1900
2018-10-07T07:28:13.680Z,1908
2018-10-07T07:29:23.781Z,1916
2018-10-07T07:30:33.616Z,1920
2018-10-07T07:31:43.458Z,1928
2018-10-07T07:32:53.303Z,1936
2018-10-07T07:34:02.873Z,1940
2018-10-07T07:35:11.898Z,1952
2018-10-07T07:36:21.476Z,1956
2018-10-07T07:37:31.585Z,1964
2018-10-07T07:38:41.155Z,1968
2018-10-07T07:39:50.457Z,1972
2018-10-07T07:41:00.033Z,1980
2018-10-07T07:42:10.155Z,1980
2018-10-07T07:43:20.100Z,1988
2018-10-07T07:44:29.943Z,1992
2018-10-07T07:45:39.513Z,1996
2018-10-07T07:46:49.361Z,1996
2018-10-07T07:47:58.663Z,2004
2018-10-07T07:49:08.812Z,2008
2018-10-07T07:50:18.407Z,2008
2018-10-07T07:51:28.528Z,2012
2018-10-07T07:52:38.377Z,2020
2018-10-07T07:53:48.223Z,2016
2018-10-07T07:54:58.337Z,2024
2018-10-07T07:56:08.184Z,2028
2018-10-07T07:57:18.288Z,2036
2018-10-07T07:58:27.855Z,2040
2018-10-07T07:59:36.882Z,2044
2018-10-07T08:00:46.991Z,2052
2018-10-07T08:01:56.558Z,2056
2018-10-07T08:03:06.130Z,2064
2018-10-07T08:04:15.969Z,2076
2018-10-07T08:05:25.552Z,2080
2018-10-07T08:06:35.395Z,2092
2018-10-07T08:07:45.240Z,2108
2018-10-07T08:08:55.401Z,2116
2018-10-07T08:10:05.063Z,2128
2018-10-07T08:11:15.221Z,2144
2018-10-07T08:12:25.341Z,2156
2018-10-07T08:13:34.924Z,2168
2018-10-07T08:14:44.519Z,2180
2018-10-07T08:15:54.083Z,2192
2018-10-07T08:17:03.918Z,2200
2018-10-07T08:18:14.092Z,2204
2018-10-07T08:19:24.209Z,2208
2018-10-07T08:20:34.058Z,2204
2018-10-07T08:21:43.917Z,2204
2018-10-07T08:22:53.487Z,2200
2018-10-07T08:24:03.626Z,2204
2018-10-07T08:25:13.199Z,2200
2018-10-07T08:26:22.764Z,2200
2018-10-07T08:27:32.602Z,2196
2018-10-07T08:28:42.489Z,2196
2018-10-07T08:29:52.680Z,2196
2018-10-07T08:31:02.266Z,2200
2018-10-07T08:32:12.110Z,2204
2018-10-07T08:33:21.678Z,2212
2018-10-07T08:34:31.791Z,2228
2018-10-07T08:35:41.093Z,2236
2018-10-07T08:36:50.665Z,2240
2018-10-07T08:38:00.769Z,2256
2018-10-07T08:39:10.070Z,2264
2018-10-07T08:40:19.640Z,2268
2018-10-07T08:41:29.212Z,2272
2018-10-07T08:42:39.047Z,2272
2018-10-07T08:43:48.893Z,2268
2018-10-07T08:44:58.196Z,2264
2018-10-07T08:46:08.311Z,2268
2018-10-07T08:47:18.159Z,2272
2018-10-07T08:48:28.006Z,2276
2018-10-07T08:49:37.349Z,2292
2018-10-07T08:50:47.529Z,2300
2018-10-07T08:51:57.700Z,2316
2018-10-07T08:53:07.539Z,2332
2018-10-07T08:54:17.379Z,2348
2018-10-07T08:55:27.225Z,2368
2018-10-07T08:56:36.669Z,2376
2018-10-07T08:57:46.604Z,2388
2018-10-07T08:58:56.446Z,2400
2018-10-07T09:00:06.019Z,2404
2018-10-07T09:01:15.044Z,2408
2018-10-07T09:02:24.885Z,2412
2018-10-07T09:03:33.910Z,2412
2018-10-07T09:04:43.748Z,2420
2018-10-07T09:05:53.856Z,2420
2018-10-07T09:07:03.421Z,2424
2018-10-07T09:08:12.988Z,2444
2018-10-07T09:09:22.554Z,2456
2018-10-07T09:10:31.586Z,2452
2018-10-07T09:11:41.432Z,2460
2018-10-07T09:12:51.271Z,2444
2018-10-07T09:14:01.382Z,2448
2018-10-07T09:15:10.961Z,2456
2018-10-07T09:16:21.093Z,2456
2018-10-07T09:17:31.205Z,2480
2018-10-07T09:18:41.314Z,2436
2018-10-07T09:19:51.153Z,2512
2018-10-07T09:21:01.379Z,2508
2018-10-07T09:22:11.711Z,2532
2018-10-07T09:23:21.554Z,2540
2018-10-07T09:24:31.439Z,2560
2018-10-07T09:25:41.280Z,2560
2018-10-07T09:26:50.461Z,2588
2018-10-07T09:28:00.201Z,2620
2018-10-07T09:29:10.049Z,2588
2018-10-07T09:30:20.166Z,2596
2018-10-07T09:31:30.281Z,2604
2018-10-07T09:32:40.277Z,2616
2018-10-07T09:33:49.907Z,2624
2018-10-07T09:34:59.473Z,2656
2018-10-07T09:36:09.323Z,2684
2018-10-07T09:37:18.632Z,2688
2018-10-07T09:38:28.520Z,2712
2018-10-07T09:39:38.231Z,2700
2018-10-07T09:40:47.830Z,2684
2018-10-07T09:41:57.944Z,2692
2018-10-07T09:43:06.976Z,2720
2018-10-07T09:44:16.550Z,2736
2018-10-07T09:45:26.120Z,2744
2018-10-07T09:46:35.966Z,2748
2018-10-07T09:47:45.534Z,2700
2018-10-07T09:48:55.374Z,2792
2018-10-07T09:50:05.505Z,2744
2018-10-07T09:51:15.350Z,2856
2018-10-07T09:52:25.259Z,3152
2018-10-07T09:53:35.324Z,3012
2018-10-07T09:54:44.889Z,3104
2018-10-07T09:55:54.817Z,3280
2018-10-07T09:57:05.140Z,3456
2018-10-07T09:58:14.860Z,3244
2018-10-07T09:59:24.441Z,3240
2018-10-07T10:00:34.289Z,3688
2018-10-07T10:01:43.859Z,3828
2018-10-07T10:02:53.976Z,4080
2018-10-07T10:04:04.038Z,4908
2018-10-07T10:05:13.630Z,4348
2018-10-07T10:06:23.216Z,4024
2018-10-07T10:07:32.784Z,4016
2018-10-07T10:08:42.356Z,3784
2018-10-07T10:09:52.252Z,3168
2018-10-07T10:11:02.281Z,3044
2018-10-07T10:12:12.166Z,3000
2018-10-07T10:13:22.002Z,3056
2018-10-07T10:14:31.580Z,3420
2018-10-07T10:15:41.424Z,4452
2018-10-07T10:16:50.449Z,4768
2018-10-07T10:17:59.745Z,4596
2018-10-07T10:19:09.855Z,4408
2018-10-07T10:20:19.429Z,5344
2018-10-07T10:21:28.999Z,6560
2018-10-07T10:22:38.838Z,7560
2018-10-07T10:23:48.951Z,7776
2018-10-07T10:24:58.518Z,7864
2018-10-07T10:26:08.099Z,6868
2018-10-07T10:27:17.666Z,6116
2018-10-07T10:28:27.236Z,5324
2018-10-07T10:29:36.812Z,4764
2018-10-07T10:30:46.119Z,5188
2018-10-07T10:31:55.438Z,7008
2018-10-07T10:33:05.558Z,8020
2018-10-07T10:34:15.132Z,7392
2018-10-07T10:35:25.002Z,6052
2018-10-07T10:36:34.849Z,4764
2018-10-07T10:37:44.696Z,4972
2018-10-07T10:38:54.537Z,5968
2018-10-07T10:40:04.751Z,7388
2018-10-07T10:41:15.290Z,7756
2018-10-07T10:42:25.404Z,7064
2018-10-07T10:43:35.247Z,6156
2018-10-07T10:44:44.817Z,5436
2018-10-07T10:45:54.658Z,5100
2018-10-07T10:47:04.776Z,5000
2018-10-07T10:48:14.989Z,4564
2018-10-07T10:49:24.910Z,4128
2018-10-07T10:50:34.540Z,3932
2018-10-07T10:51:44.377Z,3928
2018-10-07T10:52:54.486Z,3932
2018-10-07T10:54:04.084Z,3700
2018-10-07T10:55:14.545Z,3488
2018-10-07T10:56:24.550Z,3352
2018-10-07T10:57:34.389Z,3544
2018-10-07T10:58:43.689Z,3392
2018-10-07T10:59:53.536Z,3724
2018-10-07T11:01:03.479Z,3956
2018-10-07T11:02:13.351Z,4128
2018-10-07T11:03:22.656Z,5048
2018-10-07T11:04:33.280Z,5476
2018-10-07T11:05:42.332Z,5620
2018-10-07T11:06:52.181Z,4812
2018-10-07T11:08:01.911Z,3960
2018-10-07T11:09:11.652Z,3856
2018-10-07T11:10:22.020Z,4048
2018-10-07T11:11:31.861Z,4064
2018-10-07T11:12:41.703Z,4048
2018-10-07T11:13:52.218Z,3976
2018-10-07T11:15:01.896Z,3900
2018-10-07T11:16:11.210Z,3848
2018-10-07T11:17:20.508Z,3828
2018-10-07T11:18:30.627Z,3860
2018-10-07T11:19:41.041Z,3884
2018-10-07T11:20:50.891Z,3920
2018-10-07T11:22:01.006Z,3892
2018-10-07T11:23:10.851Z,3908
2018-10-07T11:24:20.693Z,3944
2018-10-07T11:25:30.529Z,4016
2018-10-07T11:26:40.100Z,4068
2018-10-07T11:27:49.668Z,4136
2018-10-07T11:28:59.773Z,4176
2018-10-07T11:30:09.360Z,4372
2018-10-07T11:31:19.199Z,4640
2018-10-07T11:32:28.773Z,5208
2018-10-07T11:33:38.344Z,5876
2018-10-07T11:34:48.435Z,6252
2018-10-07T11:35:58.186Z,6664
2018-10-07T11:37:07.460Z,6560
2018-10-07T11:38:16.761Z,6416
2018-10-07T11:39:26.612Z,6392
2018-10-07T11:40:36.803Z,6476
2018-10-07T11:41:46.963Z,6552
2018-10-07T11:42:56.542Z,6372
2018-10-07T11:44:05.843Z,5476
2018-10-07T11:45:15.690Z,5812
2018-10-07T11:46:25.263Z,6692
2018-10-07T11:47:34.843Z,5728
2018-10-07T11:48:44.415Z,12192
2018-10-07T11:49:53.984Z,7428
2018-10-07T11:51:03.828Z,8844
2018-10-07T11:52:13.402Z,10292
2018-10-07T11:53:23.256Z,13116
2018-10-07T11:54:32.829Z,13008
2018-10-07T11:55:42.954Z,20352
2018-10-07T11:56:52.531Z,17920
2018-10-07T11:58:02.112Z,11864
2018-10-07T11:59:11.690Z,9872
2018-10-07T12:00:21.255Z,5812
2018-10-07T12:01:30.821Z,6412
2018-10-07T12:02:40.975Z,6236
2018-10-07T12:03:50.290Z,7220
2018-10-07T12:05:00.399Z,8540
2018-10-07T12:06:10.249Z,8780
2018-10-07T12:07:19.558Z,8280
2018-10-07T12:08:29.399Z,8168
2018-10-07T12:09:38.965Z,8212
2018-10-07T12:10:48.270Z,8836
2018-10-07T12:11:57.840Z,9588
2018-10-07T12:13:07.417Z,10628
2018-10-07T12:14:17.307Z,10220
2018-10-07T12:15:26.882Z,9492
2018-10-07T12:16:36.949Z,9216
2018-10-07T12:17:46.533Z,8288
2018-10-07T12:18:56.379Z,7736
2018-10-07T12:20:06.220Z,6956
2018-10-07T12:21:15.794Z,6536
2018-10-07T12:22:25.643Z,6332
2018-10-07T12:23:35.483Z,5848
2018-10-07T12:24:45.332Z,5412
2018-10-07T12:25:54.908Z,5776
2018-10-07T12:27:04.804Z,6920
2018-10-07T12:28:14.122Z,14988
2018-10-07T12:29:24.236Z,8224
2018-10-07T12:30:34.356Z,5792
2018-10-07T12:31:44.194Z,6172
2018-10-07T12:32:53.819Z,5992
2018-10-07T12:34:03.407Z,7184
2018-10-07T12:35:13.261Z,7692
2018-10-07T12:36:23.384Z,9712
2018-10-07T12:37:33.499Z,12452
2018-10-07T12:38:43.615Z,13204
2018-10-07T12:39:53.724Z,12652
2018-10-07T12:41:03.027Z,13676
2018-10-07T12:42:12.874Z,14652
2018-10-07T12:43:22.986Z,12880
2018-10-07T12:44:33.107Z,11548
2018-10-07T12:45:43.223Z,11208
2018-10-07T12:46:53.339Z,10748
2018-10-07T12:48:02.914Z,11140
2018-10-07T12:49:12.224Z,11572
2018-10-07T12:50:22.071Z,9156
2018-10-07T12:51:32.177Z,8660
2018-10-07T12:52:41.483Z,8032
2018-10-07T12:53:51.714Z,7588
2018-10-07T12:55:01.342Z,7664
2018-10-07T12:56:11.465Z,7936
2018-10-07T12:57:21.304Z,8220
2018-10-07T12:58:31.145Z,8572
2018-10-07T12:59:41.259Z,9148
2018-10-07T13:00:51.102Z,9624
2018-10-07T13:02:01.275Z,9536
2018-10-07T13:03:11.395Z,9628
2018-10-07T13:04:21.243Z,9932
2018-10-07T13:05:31.362Z,11212
2018-10-07T13:06:40.670Z,11088
2018-10-07T13:07:49.977Z,10800
2018-10-07T13:08:59.816Z,11132
2018-10-07T13:10:09.393Z,10284
2018-10-07T13:11:19.237Z,9864
2018-10-07T13:12:28.809Z,9696
2018-10-07T13:13:38.657Z,10500
2018-10-07T13:14:48.779Z,10392
2018-10-07T13:15:58.898Z,9892
2018-10-07T13:17:08.750Z,8936
2018-10-07T13:18:18.603Z,8968
2018-10-07T13:19:28.815Z,10040
2018-10-07T13:20:38.426Z,7564
2018-10-07T13:21:48.271Z,7640
2018-10-07T13:22:58.402Z,7836
2018-10-07T13:24:07.980Z,8084
2018-10-07T13:25:17.555Z,7864
2018-10-07T13:26:27.136Z,7776
2018-10-07T13:27:36.748Z,7736
2018-10-07T13:28:46.609Z,7652
2018-10-07T13:29:56.461Z,7584
2018-10-07T13:31:06.356Z,7516
2018-10-07T13:32:16.221Z,7556
2018-10-07T13:33:25.785Z,7572
2018-10-07T13:34:35.649Z,7432
2018-10-07T13:35:44.683Z,7428
2018-10-07T13:36:54.261Z,8500
2018-10-07T13:38:03.561Z,11264
2018-10-07T13:39:13.137Z,20224
2018-10-07T13:40:22.715Z,15712
2018-10-07T13:41:32.022Z,16512
2018-10-07T13:42:41.927Z,18144
2018-10-07T13:43:51.230Z,16096
2018-10-07T13:45:01.073Z,11560
2018-10-07T13:46:11.205Z,10832
2018-10-07T13:47:21.046Z,9716
2018-10-07T13:48:30.349Z,7784
2018-10-07T13:49:39.927Z,6988
2018-10-07T13:50:50.061Z,6480
2018-10-07T13:51:59.649Z,6208
2018-10-07T13:53:09.247Z,6072
2018-10-07T13:54:19.128Z,5816
2018-10-07T13:55:28.978Z,5580
2018-10-07T13:56:39.090Z,5420
2018-10-07T13:57:48.944Z,5408
2018-10-07T13:58:59.059Z,5428
2018-10-07T14:00:08.911Z,5488
2018-10-07T14:01:18.808Z,5812
2018-10-07T14:02:28.378Z,6144
2018-10-07T14:03:38.606Z,6152
2018-10-07T14:04:48.206Z,5760
2018-10-07T14:05:57.518Z,5640
2018-10-07T14:07:07.120Z,5596
2018-10-07T14:08:17.237Z,5852
2018-10-07T14:09:26.274Z,6212
2018-10-07T14:10:36.121Z,6020
2018-10-07T14:11:45.694Z,6360
2018-10-07T14:12:55.544Z,6348
2018-10-07T14:14:05.666Z,6232
2018-10-07T14:15:14.756Z,6228
2018-10-07T14:16:24.870Z,6088
2018-10-07T14:17:34.721Z,6200
2018-10-07T14:18:44.864Z,6416
2018-10-07T14:19:54.441Z,6688
2018-10-07T14:21:04.028Z,6868
2018-10-07T14:22:13.606Z,7056
2018-10-07T14:23:23.181Z,7188
2018-10-07T14:24:33.027Z,7144
2018-10-07T14:25:42.872Z,7204
2018-10-07T14:26:52.230Z,7000
2018-10-07T14:28:02.127Z,7284
2018-10-07T14:29:11.709Z,7364
2018-10-07T14:30:21.284Z,7752
2018-10-07T14:31:31.391Z,7964
2018-10-07T14:32:41.501Z,8024
2018-10-07T14:33:51.353Z,8276
2018-10-07T14:35:00.666Z,8420
2018-10-07T14:36:10.248Z,8360
2018-10-07T14:37:20.094Z,8892
2018-10-07T14:38:29.942Z,9264
2018-10-07T14:39:39.785Z,8672
2018-10-07T14:40:49.644Z,8744
2018-10-07T14:41:59.488Z,8488
2018-10-07T14:43:09.062Z,8320
2018-10-07T14:44:19.237Z,7956
2018-10-07T14:45:29.080Z,7640
2018-10-07T14:46:38.936Z,7604
2018-10-07T14:47:48.841Z,7768
2018-10-07T14:48:58.418Z,7996
2018-10-07T14:50:08.280Z,8296
2018-10-07T14:51:17.853Z,8612
2018-10-07T14:52:27.697Z,8868
2018-10-07T14:53:37.546Z,8612
2018-10-07T14:54:47.666Z,8464
2018-10-07T14:55:57.574Z,9148
2018-10-07T14:57:07.150Z,8784
2018-10-07T14:58:16.735Z,8564
2018-10-07T14:59:26.309Z,8336
2018-10-07T15:00:35.615Z,8260
2018-10-07T15:01:45.457Z,7996
2018-10-07T15:02:55.029Z,7672
2018-10-07T15:04:04.339Z,7196
2018-10-07T15:05:14.184Z,6776
2018-10-07T15:06:24.297Z,6576
2018-10-07T15:07:33.872Z,6468
2018-10-07T15:08:43.726Z,6344
2018-10-07T15:09:53.502Z,6236
2018-10-07T15:11:03.081Z,6388
2018-10-07T15:12:13.198Z,6168
2018-10-07T15:13:23.090Z,5956
2018-10-07T15:14:32.667Z,5776
2018-10-07T15:15:42.778Z,5776
2018-10-07T15:16:52.351Z,5868
2018-10-07T15:18:01.969Z,5968
2018-10-07T15:19:11.821Z,6088
2018-10-07T15:20:21.403Z,6300
2018-10-07T15:21:30.972Z,6428
2018-10-07T15:22:40.818Z,6508
2018-10-07T15:23:50.549Z,6508
2018-10-07T15:25:00.462Z,6560
2018-10-07T15:26:10.309Z,6624
2018-10-07T15:27:20.152Z,6596
2018-10-07T15:28:29.729Z,6492
2018-10-07T15:29:40.163Z,6420
2018-10-07T15:30:50.126Z,6396
2018-10-07T15:31:59.976Z,6336
2018-10-07T15:33:09.556Z,6308
2018-10-07T15:34:19.135Z,6248
2018-10-07T15:35:29.088Z,6180
2018-10-07T15:36:38.960Z,6256
2018-10-07T15:37:48.804Z,6356
2018-10-07T15:38:58.647Z,6288
2018-10-07T15:40:08.495Z,6348
2018-10-07T15:41:18.338Z,6576
2018-10-07T15:42:28.175Z,6552
2018-10-07T15:43:38.017Z,6312
2018-10-07T15:44:47.323Z,6776
2018-10-07T15:45:57.166Z,6916
2018-10-07T15:47:07.334Z,5932
2018-10-07T15:48:17.182Z,5356
2018-10-07T15:49:26.485Z,5156
2018-10-07T15:50:36.071Z,5216
2018-10-07T15:51:46.197Z,5224
2018-10-07T15:52:55.501Z,5136
2018-10-07T15:54:04.802Z,4980
2018-10-07T15:55:14.647Z,4916
2018-10-07T15:56:24.774Z,4820
2018-10-07T15:57:34.077Z,4624
2018-10-07T15:58:44.188Z,4300
2018-10-07T15:59:54.032Z,4096
2018-10-07T16:01:03.877Z,3964